Nearby METAR Reports

This page may be slow to load as it queries the National Weather Service for data.

KBIS - Bismarck, North Dakota, USA
Distance from station: S 10mi, 15km
Updated: Tue, 25-Feb-2020 2:52pm CST
Overcast
Overcast
 Wind from WNW
Wind: WNW 9 mph , 15 km/h
Temperature: 28°F , -2°C
Wind Chill: 19°F , -7°C
Dew Point: 21°F , -6°C
Humidity: 74%
Barometer: 30.50 inHg , 1032.8 hPa
Clouds: Overcast
Visibility: 10 miles , 16 km
Cloud details: Mostly cloudy 2200 ft
Overcast 2700 ft
2020/02/25 20:52 KBIS 252052Z 29008KT 10SM BKN022 OVC027 M02/M06 A3050 RMK AO2 SLP354 T10171056 56007
KDIK - Dickinson, North Dakota, USA
Distance from station: W 95mi, 154km
Updated: Tue, 25-Feb-2020 2:56pm CST
Mostly cloudy
Mostly cloudy
 Wind from NW
Wind: NW 14 mph , 22 km/h
Temperature: 28°F , -2°C
Wind Chill: 17°F , -8°C
Dew Point: 19°F , -7°C
Humidity: 69%
Barometer: 30.45 inHg , 1031.2 hPa
Clouds: Mostly cloudy
Visibility: 10 miles , 16 km
Cloud details: Few Clouds 2200 ft
Mostly cloudy 3400 ft
2020/02/25 20:56 KDIK 252056Z AUTO 31012KT 10SM FEW022 BKN034 M02/M07 A3045 RMK AO2 SLP347 T10221072 58007
 
KXWA - Williston, North Dakota, USA
Distance from station: NNW 2mi, 2km
Updated: Tue, 25-Feb-2020 2:52pm CST
Clear
Clear
 Wind from NW
Wind: NW 14 mph , 22 km/h
Temperature: 21°F , -6°C
Wind Chill: 8°F , -13°C
Dew Point: 12°F , -11°C
Humidity: 68%
Barometer: 30.50 inHg , 1032.8 hPa
Clouds: Clear
Visibility: 10 miles , 16 km
2020/02/25 20:52 KXWA 252052Z AUTO 31012KT 10SM CLR M06/M11 A3050 RMK AO2 SLP205 T10611106 58005 TSNO
KFAR - Fargo, North Dakota, USA
Distance from station: NNW 4mi, 7km
Updated: Tue, 25-Feb-2020 2:53pm CST
Clear
Clear
 Wind from N
Wind: N 22 mph , 35 km/h
Temperature: 18°F , -8°C
Wind Chill: 1°F , -17°C
Dew Point: 10°F , -12°C
Humidity: 73%
Barometer: 30.49 inHg , 1032.5 hPa
Clouds: Clear
Visibility: 10 miles , 16 km
2020/02/25 20:53 KFAR 252053Z 35019KT 10SM CLR M08/M12 A3049 RMK AO2 PK WND 35029/2005 SLP346 T10831122 53004
 
KGFK - Grand Forks, North Dakota, USA
Distance from station: NNW 76mi, 123km
Updated: Tue, 25-Feb-2020 2:53pm CST
Partly cloudy
Partly cloudy
 Wind from N
Wind: N 17 mph , 28 km/h
Temperature: 16°F , -9°C
Wind Chill: 0°F , -18°C
Dew Point: 7°F , -14°C
Humidity: 67%
Barometer: 30.51 inHg , 1033.2 hPa
Clouds: Partly cloudy
Visibility: 10 miles , 16 km
Cloud details: Partly cloudy 15000 ft
2020/02/25 20:53 KGFK 252053Z 35015KT 10SM SCT150 M09/M14 A3051 RMK AO2 SLP352 T10891139 58004 $
KMOT - Minot, North Dakota, USA
Distance from station: E 109mi, 175km
Updated: Tue, 25-Feb-2020 3:01pm CST
Overcast
Overcast
 Wind from WNW
Wind: WNW 12 mph , 19 km/h
Temperature: 30°F , -1°C
Wind Chill: 20°F , -7°C
Dew Point: 19°F , -7°C
Humidity: 64%
Barometer: 30.46 inHg , 1031.5 hPa
Clouds: Overcast
Visibility: 10 miles , 16 km
Cloud details: Partly cloudy 2800 ft
Overcast 3800 ft
2020/02/25 21:01 KMOT 252101Z 29010KT 10SM SCT028 OVC038 M01/M07 A3046 RMK AO2 T10061067